Time;durP1;ratioP1;P1;durP2;ratioP2;P2;SDS_P1;SDS_P2;PMS_P1;PMS_P2;Temp;Humidity;BMP_temperature;BMP_pressure;BME280_temperature;BME280_humidity;BME280_pressure;Samples;Min_cycle;Max_cycle;Signal;HPM_P1;HPM_P2
2022/08/06 00:02:18;;;;;;;;;;;24.50;72.70;;;;;;5117479;28;20082;-76
2022/08/06 00:04:43;;;;;;;;;;;24.50;72.70;;;;;;5117859;28;19913;-76
2022/08/06 00:07:09;;;;;;;;;;;24.50;72.60;;;;;;5117794;28;19915;-76
2022/08/06 00:09:34;;;;;;;;;;;24.40;72.60;;;;;;5117761;28;19907;-76
2022/08/06 00:12:00;;;;;;;;;;;24.40;72.60;;;;;;5117424;28;20269;-76
2022/08/06 00:14:26;;;;;;;;;;;24.40;72.50;;;;;;5117683;28;19911;-76
2022/08/06 00:16:52;;;;;;;;;;;24.40;72.70;;;;;;5117407;28;19947;-77
2022/08/06 00:19:17;;;;;;;;;;;24.50;72.60;;;;;;5117610;28;19908;-77
2022/08/06 00:21:43;;;;;;;;;;;24.40;72.50;;;;;;5116130;28;20002;-76
2022/08/06 00:24:08;;;;;;;;;;;24.40;72.60;;;;;;5117517;28;19933;-76
2022/08/06 00:26:34;;;;;;;;;;;24.40;72.60;;;;;;5117201;28;19961;-76
2022/08/06 00:29:00;;;;;;;;;;;24.40;72.50;;;;;;5117343;28;19912;-76
2022/08/06 00:31:25;;;;;;;;;;;24.40;72.50;;;;;;5116997;28;19952;-76
2022/08/06 00:33:51;;;;;;;;;;;24.40;72.50;;;;;;5117219;28;19908;-76
2022/08/06 00:36:16;;;;;;;;;;;24.40;72.50;;;;;;5117234;28;19924;-76
2022/08/06 00:38:42;;;;;;;;;;;24.40;72.50;;;;;;5117089;28;19915;-76
2022/08/06 00:41:07;;;;;;;;;;;24.40;72.50;;;;;;5117067;28;20255;-76
2022/08/06 00:43:33;;;;;;;;;;;24.40;72.50;;;;;;5117093;28;20010;-76
2022/08/06 00:45:59;;;;;;;;;;;24.40;72.60;;;;;;5117077;28;19912;-76
2022/08/06 00:48:24;;;;;;;;;;;24.40;72.60;;;;;;5115300;28;19915;-76
2022/08/06 00:50:50;;;;;;;;;;;24.40;72.50;;;;;;5116770;28;19917;-76
2022/08/06 00:53:15;;;;;;;;;;;24.40;72.60;;;;;;5117055;28;20377;-79
2022/08/06 00:55:41;;;;;;;;;;;24.40;72.60;;;;;;5116955;28;19908;-76
2022/08/06 00:58:07;;;;;;;;;;;24.40;72.60;;;;;;5116946;28;19912;-76
2022/08/06 01:00:33;;;;;;;;;;;24.40;72.60;;;;;;5115283;28;19908;-76
2022/08/06 01:02:59;;;;;;;;;;;24.40;72.60;;;;;;5116823;28;20269;-75
2022/08/06 01:05:24;;;;;;;;;;;24.30;72.50;;;;;;5116508;28;19912;-75
2022/08/06 01:07:50;;;;;;;;;;;24.40;72.60;;;;;;5116662;28;20470;-76
2022/08/06 01:10:16;;;;;;;;;;;24.40;72.60;;;;;;5116605;28;19911;-75
2022/08/06 01:12:41;;;;;;;;;;;24.30;72.50;;;;;;5116375;28;20350;-76
2022/08/06 01:15:07;;;;;;;;;;;24.30;72.60;;;;;;5116445;28;20419;-80
2022/08/06 01:17:35;;;;;;;;;;;24.40;72.60;;;;;;5116679;28;19908;-75
2022/08/06 01:20:19;;;;;;;;;;;24.40;72.60;;;;;;5116261;28;19915;-74
2022/08/06 01:23:06;;;;;;;;;;;24.40;72.60;;;;;;5115194;28;19954;-76
2022/08/06 01:25:50;;;;;;;;;;;24.40;72.60;;;;;;5116371;28;19915;-76
2022/08/06 01:28:42;;;;;;;;;;;24.40;72.60;;;;;;5116207;28;19908;-76
2022/08/06 01:31:12;;;;;;;;;;;24.40;72.60;;;;;;5112987;28;19911;-76
2022/08/06 01:33:41;;;;;;;;;;;24.40;72.50;;;;;;5115923;28;20411;-75
2022/08/06 01:36:09;;;;;;;;;;;24.40;72.50;;;;;;5115912;28;19923;-75
2022/08/06 01:38:36;;;;;;;;;;;24.40;72.50;;;;;;5114714;28;19919;-75
2022/08/06 01:41:04;;;;;;;;;;;24.40;72.50;;;;;;5115978;28;20366;-76
2022/08/06 01:43:31;;;;;;;;;;;24.40;72.50;;;;;;5115747;28;19911;-76
2022/08/06 01:45:57;;;;;;;;;;;24.30;72.50;;;;;;5115811;28;19998;-75
2022/08/06 01:48:25;;;;;;;;;;;24.30;72.60;;;;;;5114875;28;19914;-76
2022/08/06 01:50:52;;;;;;;;;;;24.30;72.60;;;;;;5115451;28;19907;-76
2022/08/06 01:53:22;;;;;;;;;;;24.20;72.60;;;;;;5115746;28;19912;-76
2022/08/06 01:55:53;;;;;;;;;;;24.20;72.60;;;;;;5115660;28;20303;-76
2022/08/06 01:58:22;;;;;;;;;;;24.20;72.70;;;;;;5115678;28;19908;-76
2022/08/06 02:00:51;;;;;;;;;;;24.20;72.80;;;;;;5115899;28;19912;-76
2022/08/06 02:03:26;;;;;;;;;;;24.20;72.80;;;;;;5115469;28;20022;-76
2022/08/06 02:05:53;;;;;;;;;;;24.20;72.80;;;;;;5115400;28;19916;-76
2022/08/06 02:08:20;;;;;;;;;;;24.20;72.80;;;;;;5115401;28;19930;-76
2022/08/06 02:10:46;;;;;;;;;;;24.20;72.80;;;;;;5115297;28;20346;-76
2022/08/06 02:13:14;;;;;;;;;;;24.20;72.80;;;;;;5115269;28;19915;-76
2022/08/06 02:15:42;;;;;;;;;;;24.20;72.90;;;;;;5114231;28;19908;-76
2022/08/06 02:18:08;;;;;;;;;;;24.20;72.90;;;;;;5115775;28;19945;-76
2022/08/06 02:20:40;;;;;;;;;;;24.20;72.90;;;;;;5115245;28;19908;-76
2022/08/06 02:23:11;;;;;;;;;;;24.20;72.90;;;;;;5115073;28;19916;-76
2022/08/06 02:25:40;;;;;;;;;;;24.20;72.90;;;;;;5115235;28;19911;-73
2022/08/06 02:28:06;;;;;;;;;;;24.20;72.90;;;;;;5113747;28;19911;-76
2022/08/06 02:30:36;;;;;;;;;;;24.20;73.40;;;;;;5115071;28;20372;-76
2022/08/06 02:33:02;;;;;;;;;;;24.20;72.80;;;;;;5115107;28;19907;-76
2022/08/06 02:35:29;;;;;;;;;;;24.20;72.90;;;;;;5114968;28;19923;-76
2022/08/06 02:38:00;;;;;;;;;;;24.20;72.90;;;;;;5115259;28;19919;-76
2022/08/06 02:40:32;;;;;;;;;;;24.20;72.90;;;;;;5115206;28;19908;-76
2022/08/06 02:43:01;;;;;;;;;;;24.10;72.90;;;;;;5114930;28;20340;-76
2022/08/06 02:45:43;;;;;;;;;;;24.10;72.90;;;;;;5115145;28;20316;-76
2022/08/06 02:48:18;;;;;;;;;;;24.10;72.90;;;;;;5114730;28;19908;-76
2022/08/06 02:50:46;;;;;;;;;;;24.10;73.00;;;;;;5113578;28;19908;-75
2022/08/06 02:53:26;;;;;;;;;;;24.10;73.00;;;;;;5114591;28;19908;-76
2022/08/06 02:55:56;;;;;;;;;;;24.10;73.10;;;;;;5114705;28;19911;-76
2022/08/06 02:58:37;;;;;;;;;;;24.10;73.30;;;;;;5114723;28;19929;-76
2022/08/06 03:01:06;;;;;;;;;;;24.00;73.10;;;;;;5113526;28;19908;-76
2022/08/06 03:03:32;;;;;;;;;;;24.00;73.20;;;;;;5114448;28;20367;-76
2022/08/06 03:05:58;;;;;;;;;;;24.00;73.20;;;;;;5114637;28;19962;-76
2022/08/06 03:08:26;;;;;;;;;;;24.00;73.20;;;;;;5114327;28;19915;-76
2022/08/06 03:10:52;;;;;;;;;;;24.10;73.80;;;;;;5114633;28;20003;-76
2022/08/06 03:13:18;;;;;;;;;;;24.10;73.20;;;;;;5117360;28;19912;-77
2022/08/06 03:15:45;;;;;;;;;;;24.10;73.10;;;;;;5118813;28;19915;-76
2022/08/06 03:18:12;;;;;;;;;;;24.20;73.80;;;;;;5118827;28;19950;-77
2022/08/06 03:20:38;;;;;;;;;;;24.20;73.20;;;;;;5118688;28;19911;-76
2022/08/06 03:23:06;;;;;;;;;;;24.20;73.20;;;;;;5118828;28;19912;-77
2022/08/06 03:25:32;;;;;;;;;;;24.20;73.10;;;;;;5118616;28;19911;-76
2022/08/06 03:27:58;;;;;;;;;;;24.20;73.10;;;;;;5118875;28;19919;-76
2022/08/06 03:30:25;;;;;;;;;;;24.20;73.10;;;;;;5118559;28;19943;-76
2022/08/06 03:32:51;;;;;;;;;;;24.20;73.10;;;;;;5118481;28;19908;-76
2022/08/06 03:35:16;;;;;;;;;;;24.30;73.20;;;;;;5118730;28;19908;-76
2022/08/06 03:37:42;;;;;;;;;;;24.20;73.10;;;;;;5117994;28;19946;-76
2022/08/06 03:40:09;;;;;;;;;;;24.20;73.10;;;;;;5118207;28;20353;-75
2022/08/06 03:42:34;;;;;;;;;;;24.20;73.10;;;;;;5118301;28;19998;-76
2022/08/06 03:45:00;;;;;;;;;;;24.30;73.20;;;;;;5118014;28;20427;-75
2022/08/06 03:47:32;;;;;;;;;;;24.30;73.20;;;;;;5117926;28;19908;-75
2022/08/06 03:50:03;;;;;;;;;;;24.20;73.30;;;;;;5118664;28;19947;-76
2022/08/06 03:52:30;;;;;;;;;;;24.20;73.30;;;;;;5116880;28;19911;-75
2022/08/06 03:54:58;;;;;;;;;;;24.20;73.40;;;;;;5117883;28;19908;-76
2022/08/06 03:57:25;;;;;;;;;;;24.20;73.40;;;;;;5117907;28;19911;-76
2022/08/06 03:59:52;;;;;;;;;;;24.20;73.40;;;;;;5117688;28;20010;-76
2022/08/06 04:02:18;;;;;;;;;;;24.20;73.40;;;;;;5118222;28;19957;-77
2022/08/06 04:04:44;;;;;;;;;;;24.20;74.00;;;;;;5117798;28;19941;-76
2022/08/06 04:07:12;;;;;;;;;;;24.30;74.00;;;;;;5118024;28;20253;-76
2022/08/06 04:09:38;;;;;;;;;;;24.20;73.40;;;;;;5118081;28;20231;-76
2022/08/06 04:12:04;;;;;;;;;;;24.30;73.40;;;;;;5117719;28;19919;-75
2022/08/06 04:14:29;;;;;;;;;;;24.30;73.50;;;;;;5117422;28;19912;-76
2022/08/06 04:16:56;;;;;;;;;;;24.30;73.40;;;;;;5118066;28;20417;-76
2022/08/06 04:19:22;;;;;;;;;;;24.30;73.40;;;;;;5117799;28;20362;-76
2022/08/06 04:21:48;;;;;;;;;;;24.30;73.50;;;;;;5117376;28;19911;-76
2022/08/06 04:24:14;;;;;;;;;;;24.40;73.30;;;;;;5115912;28;19918;-76
2022/08/06 04:26:42;;;;;;;;;;;24.40;73.40;;;;;;5117386;28;19977;-76
2022/08/06 04:29:09;;;;;;;;;;;24.40;73.30;;;;;;5117432;28;19918;-76
2022/08/06 04:31:36;;;;;;;;;;;24.40;73.30;;;;;;5117352;28;19908;-76
2022/08/06 04:34:02;;;;;;;;;;;24.40;73.20;;;;;;5117102;28;20308;-76
2022/08/06 04:36:28;;;;;;;;;;;24.40;73.20;;;;;;5117301;28;19927;-76
2022/08/06 04:38:54;;;;;;;;;;;24.40;73.10;;;;;;5117586;28;19915;-76
2022/08/06 04:41:19;;;;;;;;;;;24.40;73.10;;;;;;5116577;28;20269;-80
2022/08/06 04:43:45;;;;;;;;;;;24.40;73.10;;;;;;5116946;28;19911;-77
2022/08/06 04:46:11;;;;;;;;;;;24.40;72.90;;;;;;5117140;28;19919;-77
2022/08/06 04:48:37;;;;;;;;;;;24.50;72.90;;;;;;5117076;28;19911;-77
2022/08/06 04:51:04;;;;;;;;;;;24.50;72.90;;;;;;5116930;28;20258;-77
2022/08/06 04:53:35;;;;;;;;;;;24.40;72.80;;;;;;5116667;28;20064;-76
2022/08/06 04:56:00;;;;;;;;;;;24.40;72.70;;;;;;5116820;28;19926;-77
2022/08/06 04:58:26;;;;;;;;;;;24.40;72.60;;;;;;5117161;28;19908;-77
2022/08/06 05:00:51;;;;;;;;;;;24.40;72.80;;;;;;5116405;28;20269;-76
2022/08/06 05:03:17;;;;;;;;;;;24.40;72.90;;;;;;5116592;28;19916;-77
2022/08/06 05:06:01;;;;;;;;;;;24.40;73.50;;;;;;5116662;28;20362;-76
2022/08/06 05:08:28;;;;;;;;;;;24.40;72.80;;;;;;5116482;28;19955;-76
2022/08/06 05:11:01;;;;;;;;;;;24.40;72.80;;;;;;5117034;28;20270;-78
2022/08/06 05:13:29;;;;;;;;;;;24.40;72.80;;;;;;5116307;28;19908;-77
2022/08/06 05:15:56;;;;;;;;;;;24.40;72.90;;;;;;5115333;28;19908;-80
2022/08/06 05:18:25;;;;;;;;;;;24.40;72.80;;;;;;5116471;28;19915;-76
2022/08/06 05:20:51;;;;;;;;;;;24.40;72.80;;;;;;5115944;28;19999;-77
2022/08/06 05:23:20;;;;;;;;;;;24.40;72.70;;;;;;5116533;28;19911;-77
2022/08/06 05:25:46;;;;;;;;;;;24.40;72.80;;;;;;5114786;28;19926;-77
2022/08/06 05:28:12;;;;;;;;;;;24.40;72.80;;;;;;5116315;28;19907;-76
2022/08/06 05:30:50;;;;;;;;;;;24.50;72.80;;;;;;5115933;28;20358;-76
2022/08/06 05:33:23;;;;;;;;;;;24.50;72.70;;;;;;5116148;28;19952;-76
2022/08/06 05:35:49;;;;;;;;;;;24.50;72.60;;;;;;5115942;28;19973;-76
2022/08/06 05:38:14;;;;;;;;;;;24.50;72.60;;;;;;5115729;28;20362;-77
2022/08/06 05:40:40;;;;;;;;;;;24.50;72.60;;;;;;5115830;28;20357;-76
2022/08/06 05:43:05;;;;;;;;;;;24.60;72.60;;;;;;5115904;28;20315;-75
2022/08/06 05:45:31;;;;;;;;;;;24.60;72.50;;;;;;5115848;28;19912;-77
2022/08/06 05:47:59;;;;;;;;;;;24.60;72.50;;;;;;5114262;28;19908;-76
2022/08/06 05:50:27;;;;;;;;;;;24.70;72.50;;;;;;5115811;28;20373;-76
2022/08/06 05:53:08;;;;;;;;;;;24.70;72.30;;;;;;5115816;28;19908;-75
2022/08/06 05:55:33;;;;;;;;;;;24.70;72.20;;;;;;5115953;28;19908;-76
2022/08/06 05:58:01;;;;;;;;;;;24.80;72.30;;;;;;5114262;28;20444;-76
2022/08/06 06:00:29;;;;;;;;;;;24.80;72.50;;;;;;5113892;28;19908;-76
2022/08/06 06:02:55;;;;;;;;;;;24.80;71.70;;;;;;5115310;28;19916;-76
2022/08/06 06:05:22;;;;;;;;;;;24.80;71.80;;;;;;5115197;28;20251;-76
2022/08/06 06:07:49;;;;;;;;;;;24.80;71.80;;;;;;5115136;28;19911;-76
2022/08/06 06:10:15;;;;;;;;;;;24.80;71.80;;;;;;5115177;28;19907;-77
2022/08/06 06:12:41;;;;;;;;;;;24.90;71.90;;;;;;5114986;28;19952;-75
2022/08/06 06:15:10;;;;;;;;;;;24.90;71.80;;;;;;5114232;28;19912;-75
2022/08/06 06:17:41;;;;;;;;;;;24.90;71.70;;;;;;5115041;28;20259;-76
2022/08/06 06:20:30;;;;;;;;;;;24.90;71.60;;;;;;5114755;28;20327;-76
2022/08/06 06:23:11;;;;;;;;;;;24.90;71.50;;;;;;5114028;28;20014;-75
2022/08/06 06:25:56;;;;;;;;;;;25.00;71.40;;;;;;5114549;28;20006;-76
2022/08/06 06:28:28;;;;;;;;;;;25.00;71.30;;;;;;5114944;28;19935;-76
2022/08/06 06:30:57;;;;;;;;;;;24.00;70.70;;;;;;5113776;28;19961;-77
2022/08/06 06:33:26;;;;;;;;;;;25.00;71.20;;;;;;5114872;28;19914;-77
2022/08/06 06:35:54;;;;;;;;;;;25.00;71.20;;;;;;5114928;28;20388;-78
2022/08/06 06:38:38;;;;;;;;;;;25.00;71.70;;;;;;5115520;28;19968;-77
2022/08/06 06:41:08;;;;;;;;;;;25.10;71.20;;;;;;5114951;28;19956;-75
2022/08/06 06:43:33;;;;;;;;;;;25.10;71.30;;;;;;5114872;28;19972;-75
2022/08/06 06:46:18;;;;;;;;;;;25.10;71.20;;;;;;5114525;28;20404;-76
2022/08/06 06:48:47;;;;;;;;;;;25.10;71.10;;;;;;5113922;28;19915;-76
2022/08/06 06:51:21;;;;;;;;;;;25.10;71.00;;;;;;5114590;28;19908;-76
2022/08/06 06:53:48;;;;;;;;;;;25.10;71.00;;;;;;5114526;28;20353;-75
2022/08/06 06:56:16;;;;;;;;;;;25.10;71.00;;;;;;5114597;28;20261;-76
2022/08/06 06:58:54;;;;;;;;;;;25.10;71.00;;;;;;5114658;28;20019;-76
2022/08/06 07:01:20;;;;;;;;;;;25.10;70.90;;;;;;5114470;28;19970;-76
2022/08/06 07:03:46;;;;;;;;;;;25.20;71.00;;;;;;5114732;28;20277;-76
2022/08/06 07:06:12;;;;;;;;;;;25.20;70.70;;;;;;5114700;28;19912;-76
2022/08/06 07:08:44;;;;;;;;;;;25.20;70.70;;;;;;5114484;28;19918;-76
2022/08/06 07:11:10;;;;;;;;;;;25.30;70.70;;;;;;5114089;28;19942;-76
2022/08/06 07:13:37;;;;;;;;;;;25.20;70.60;;;;;;5113819;28;20348;-75
2022/08/06 07:16:04;;;;;;;;;;;25.30;70.60;;;;;;5114346;28;19908;-76
2022/08/06 07:18:29;;;;;;;;;;;25.30;70.50;;;;;;5114516;28;19965;-75
2022/08/06 07:20:56;;;;;;;;;;;25.40;70.60;;;;;;5113945;28;19947;-77
2022/08/06 07:23:22;;;;;;;;;;;25.40;70.50;;;;;;5114350;28;19912;-76
2022/08/06 07:25:48;;;;;;;;;;;25.40;70.50;;;;;;5114077;28;19915;-76
2022/08/06 07:28:14;;;;;;;;;;;25.40;70.50;;;;;;5114102;28;19908;-75
2022/08/06 07:30:41;;;;;;;;;;;25.50;70.60;;;;;;5114464;28;19907;-76
2022/08/06 07:33:08;;;;;;;;;;;25.50;70.50;;;;;;5113878;28;19912;-75
2022/08/06 07:35:34;;;;;;;;;;;25.50;70.40;;;;;;5114053;28;19908;-76
2022/08/06 07:38:01;;;;;;;;;;;25.50;70.40;;;;;;5113885;28;19931;-76
2022/08/06 07:40:31;;;;;;;;;;;25.60;70.50;;;;;;5113843;28;20000;-76
2022/08/06 07:43:01;;;;;;;;;;;25.50;70.50;;;;;;5113822;28;19912;-76
2022/08/06 07:45:28;;;;;;;;;;;25.60;70.60;;;;;;5114048;28;19912;-76
2022/08/06 07:47:55;;;;;;;;;;;25.60;70.60;;;;;;5113844;28;20010;-76
2022/08/06 07:50:21;;;;;;;;;;;25.60;70.60;;;;;;5114098;28;19914;-75
2022/08/06 07:52:47;;;;;;;;;;;25.70;70.60;;;;;;5113830;28;20410;-76
2022/08/06 07:55:13;;;;;;;;;;;25.70;70.40;;;;;;5113887;28;19911;-77
2022/08/06 07:57:40;;;;;;;;;;;25.70;70.40;;;;;;5113663;28;19957;-76
2022/08/06 08:00:05;;;;;;;;;;;25.80;70.40;;;;;;5116276;28;19915;-76
2022/08/06 08:02:31;;;;;;;;;;;25.80;70.30;;;;;;5117203;28;19912;-76
2022/08/06 08:07:42;;;;;;;;;;;25.80;70.20;;;;;;5117683;28;19915;-76
2022/08/06 08:10:07;;;;;;;;;;;25.80;70.20;;;;;;5117662;28;19908;-77
2022/08/06 08:12:35;;;;;;;;;;;25.80;70.20;;;;;;5117567;28;19998;-76
2022/08/06 08:15:02;;;;;;;;;;;25.90;70.20;;;;;;5117527;28;19939;-76
2022/08/06 08:17:28;;;;;;;;;;;25.90;70.20;;;;;;5118270;28;19916;-77
2022/08/06 08:19:54;;;;;;;;;;;25.90;70.00;;;;;;5117842;28;19960;-77
2022/08/06 08:22:20;;;;;;;;;;;26.00;70.00;;;;;;5117291;28;19964;-77
2022/08/06 08:24:46;;;;;;;;;;;25.90;69.90;;;;;;5117322;28;19998;-76
2022/08/06 08:27:12;;;;;;;;;;;26.00;70.00;;;;;;5117171;28;19908;-77
2022/08/06 08:29:38;;;;;;;;;;;26.00;70.00;;;;;;5117554;28;20383;-76
2022/08/06 08:32:04;;;;;;;;;;;26.00;69.90;;;;;;5115598;28;19908;-77
2022/08/06 08:34:30;;;;;;;;;;;26.00;69.80;;;;;;5117105;28;20361;-76
2022/08/06 08:36:56;;;;;;;;;;;26.00;69.90;;;;;;5116511;28;19923;-77
2022/08/06 08:39:22;;;;;;;;;;;26.10;69.90;;;;;;5117165;28;19908;-76
2022/08/06 08:42:14;;;;;;;;;;;26.10;69.90;;;;;;5117357;28;19918;-75
2022/08/06 08:44:40;;;;;;;;;;;26.10;69.90;;;;;;5113707;28;19916;-77
2022/08/06 08:47:07;;;;;;;;;;;26.20;69.80;;;;;;5116809;28;19912;-76
2022/08/06 08:49:33;;;;;;;;;;;26.20;69.60;;;;;;5116888;28;19912;-76
2022/08/06 08:51:59;;;;;;;;;;;26.20;69.50;;;;;;5116566;28;19908;-76
2022/08/06 08:54:27;;;;;;;;;;;26.20;69.40;;;;;;5116462;28;19924;-78
2022/08/06 08:56:53;;;;;;;;;;;26.20;69.40;;;;;;5116498;28;20246;-76
2022/08/06 08:59:19;;;;;;;;;;;26.20;69.50;;;;;;5116668;28;19914;-75
2022/08/06 09:01:45;;;;;;;;;;;26.20;69.50;;;;;;5116490;28;20332;-76
2022/08/06 09:04:10;;;;;;;;;;;26.30;69.40;;;;;;5116520;28;20454;-76
2022/08/06 09:06:36;;;;;;;;;;;26.30;69.40;;;;;;5116619;28;19940;-77
2022/08/06 09:09:03;;;;;;;;;;;26.30;69.30;;;;;;5116481;28;20379;-77
2022/08/06 09:11:32;;;;;;;;;;;26.30;69.20;;;;;;5115899;28;19961;-77
2022/08/06 09:14:01;;;;;;;;;;;26.30;69.20;;;;;;5116172;28;19912;-76
2022/08/06 09:16:28;;;;;;;;;;;26.30;69.00;;;;;;5116040;28;19908;-76
2022/08/06 09:18:53;;;;;;;;;;;26.40;69.10;;;;;;5116311;28;19908;-76
2022/08/06 09:21:19;;;;;;;;;;;26.40;69.10;;;;;;5115859;28;19914;-76
2022/08/06 09:23:44;;;;;;;;;;;26.40;69.00;;;;;;5116535;28;19916;-76
2022/08/06 09:26:10;;;;;;;;;;;26.40;68.80;;;;;;5116062;28;19941;-76
2022/08/06 09:28:37;;;;;;;;;;;26.40;68.50;;;;;;5116367;28;19950;-75
2022/08/06 09:31:07;;;;;;;;;;;26.50;69.20;;;;;;5115814;28;19911;-76
2022/08/06 09:33:33;;;;;;;;;;;26.50;68.40;;;;;;5116012;28;20112;-76
2022/08/06 09:36:06;;;;;;;;;;;26.50;68.50;;;;;;5114110;28;19919;-76
2022/08/06 09:38:32;;;;;;;;;;;26.50;68.50;;;;;;5115583;28;20316;-78
2022/08/06 09:41:08;;;;;;;;;;;26.50;68.20;;;;;;5115738;28;19911;-76
2022/08/06 09:43:34;;;;;;;;;;;26.60;68.40;;;;;;5115571;28;19919;-77
2022/08/06 09:45:59;;;;;;;;;;;26.60;68.20;;;;;;5115939;28;19919;-76
2022/08/06 09:48:25;;;;;;;;;;;26.60;68.30;;;;;;5115806;28;19908;-76
2022/08/06 09:50:50;;;;;;;;;;;26.60;68.20;;;;;;5115548;28;19907;-77
2022/08/06 09:53:17;;;;;;;;;;;26.70;68.20;;;;;;5115472;28;19907;-77
2022/08/06 09:55:43;;;;;;;;;;;26.70;68.20;;;;;;5115547;28;19978;-78
2022/08/06 09:58:09;;;;;;;;;;;26.70;68.00;;;;;;5115436;28;19914;-76
2022/08/06 10:00:35;;;;;;;;;;;26.70;67.90;;;;;;5115658;28;20002;-76
2022/08/06 10:03:02;;;;;;;;;;;26.70;67.90;;;;;;5115122;28;20330;-75
2022/08/06 10:05:27;;;;;;;;;;;26.70;67.70;;;;;;5115331;28;19923;-76
2022/08/06 10:08:04;;;;;;;;;;;26.80;67.70;;;;;;5115693;28;19912;-76
2022/08/06 10:10:39;;;;;;;;;;;26.80;67.60;;;;;;5115459;28;20384;-78
2022/08/06 10:13:15;;;;;;;;;;;26.80;67.40;;;;;;5115229;28;20052;-76
2022/08/06 10:15:41;;;;;;;;;;;26.80;67.30;;;;;;5114924;28;19908;-76
2022/08/06 10:18:07;;;;;;;;;;;26.90;67.30;;;;;;5114963;28;19953;-76
2022/08/06 10:20:32;;;;;;;;;;;26.90;67.00;;;;;;5114044;28;20308;-76
2022/08/06 10:22:58;;;;;;;;;;;26.90;67.00;;;;;;5114953;28;19934;-77
2022/08/06 10:25:24;;;;;;;;;;;26.90;67.10;;;;;;5115076;28;19916;-76
2022/08/06 10:27:52;;;;;;;;;;;27.00;67.10;;;;;;5115128;28;19908;-76
2022/08/06 10:30:18;;;;;;;;;;;27.00;66.80;;;;;;5114680;28;20023;-76
2022/08/06 10:32:48;;;;;;;;;;;27.00;67.40;;;;;;5114659;28;19939;-76
2022/08/06 10:35:18;;;;;;;;;;;27.00;66.80;;;;;;5114929;28;19914;-78
2022/08/06 10:37:45;;;;;;;;;;;27.10;67.40;;;;;;5115405;28;20018;-76
2022/08/06 10:40:12;;;;;;;;;;;27.10;66.70;;;;;;5114727;28;19907;-75
2022/08/06 10:42:38;;;;;;;;;;;27.20;66.70;;;;;;5115229;28;19915;-76
2022/08/06 10:45:05;;;;;;;;;;;27.20;66.60;;;;;;5114959;28;20372;-77
2022/08/06 10:47:32;;;;;;;;;;;27.30;66.60;;;;;;5114437;28;19908;-76
2022/08/06 10:49:59;;;;;;;;;;;27.40;66.70;;;;;;5114788;28;19919;-77
2022/08/06 10:52:24;;;;;;;;;;;27.40;66.10;;;;;;5113775;28;19913;-76
2022/08/06 10:54:51;;;;;;;;;;;27.50;66.30;;;;;;5113624;28;20008;-76
2022/08/06 10:57:16;;;;;;;;;;;27.60;66.10;;;;;;5113696;28;20343;-77
2022/08/06 10:59:42;;;;;;;;;;;27.60;66.00;;;;;;5114876;28;19955;-77
2022/08/06 11:02:08;;;;;;;;;;;27.60;65.90;;;;;;5114262;28;19912;-77
2022/08/06 11:04:38;;;;;;;;;;;27.60;65.70;;;;;;5114571;28;19965;-78
2022/08/06 11:07:10;;;;;;;;;;;27.70;65.70;;;;;;5114179;28;19908;-76
2022/08/06 11:09:38;;;;;;;;;;;27.70;65.50;;;;;;5114734;28;19930;-78
2022/08/06 11:12:07;;;;;;;;;;;27.70;65.50;;;;;;5115075;28;19999;-77
2022/08/06 11:14:34;;;;;;;;;;;27.70;65.50;;;;;;5114510;28;19912;-75
2022/08/06 11:17:00;;;;;;;;;;;27.80;65.40;;;;;;5114583;28;19931;-77
2022/08/06 11:19:39;;;;;;;;;;;27.70;65.30;;;;;;5113009;28;20358;-78
2022/08/06 11:22:05;;;;;;;;;;;27.70;65.30;;;;;;5115454;28;19960;-76
2022/08/06 11:24:31;;;;;;;;;;;27.70;65.20;;;;;;5113810;28;20368;-77
2022/08/06 11:26:57;;;;;;;;;;;27.80;65.40;;;;;;5113816;28;20003;-76
2022/08/06 11:29:22;;;;;;;;;;;27.70;65.20;;;;;;5111924;28;19994;-76
2022/08/06 11:31:50;;;;;;;;;;;27.70;65.30;;;;;;5111365;28;19974;-76
2022/08/06 11:34:17;;;;;;;;;;;27.70;65.30;;;;;;5115899;28;19947;-75
2022/08/06 11:36:49;;;;;;;;;;;27.80;65.50;;;;;;5118119;28;20091;-76
2022/08/06 11:39:16;;;;;;;;;;;27.80;65.50;;;;;;5116414;28;20350;-76
2022/08/06 11:41:46;;;;;;;;;;;27.70;65.30;;;;;;5116725;28;19908;-79
2022/08/06 11:44:15;;;;;;;;;;;27.70;65.80;;;;;;5117178;28;19920;-77
2022/08/06 11:46:41;;;;;;;;;;;27.80;65.30;;;;;;5116617;28;19908;-78
2022/08/06 11:49:16;;;;;;;;;;;27.80;65.30;;;;;;5117563;28;20354;-77
2022/08/06 11:51:57;;;;;;;;;;;27.70;65.30;;;;;;5117446;28;20365;-76
2022/08/06 11:54:25;;;;;;;;;;;27.80;65.30;;;;;;5117011;28;20273;-76
2022/08/06 11:57:06;;;;;;;;;;;27.80;65.30;;;;;;5118072;28;19911;-78
2022/08/06 11:59:49;;;;;;;;;;;27.80;65.30;;;;;;5117730;28;19912;-77
2022/08/06 12:02:16;;;;;;;;;;;27.80;65.40;;;;;;5118311;28;19915;-76
2022/08/06 12:04:44;;;;;;;;;;;27.80;65.30;;;;;;5117734;28;19926;-77
2022/08/06 12:07:17;;;;;;;;;;;27.80;65.40;;;;;;5117585;28;19907;-77
2022/08/06 12:09:43;;;;;;;;;;;27.80;65.20;;;;;;5116495;28;19908;-75
2022/08/06 12:12:24;;;;;;;;;;;27.90;65.30;;;;;;5117701;28;19908;-77
2022/08/06 12:14:50;;;;;;;;;;;27.90;65.20;;;;;;5117542;28;20365;-76
2022/08/06 12:17:16;;;;;;;;;;;27.90;65.10;;;;;;5117320;28;19911;-76
2022/08/06 12:19:46;;;;;;;;;;;27.90;65.10;;;;;;5117172;28;19911;-76
2022/08/06 12:22:12;;;;;;;;;;;27.90;65.10;;;;;;5117739;28;19940;-76
2022/08/06 12:24:38;;;;;;;;;;;28.00;65.10;;;;;;5117329;28;20297;-75
2022/08/06 12:27:07;;;;;;;;;;;28.00;65.10;;;;;;5117311;28;19908;-77
2022/08/06 12:29:32;;;;;;;;;;;28.10;65.00;;;;;;5099067;28;19908;-77
2022/08/06 12:31:58;;;;;;;;;;;27.30;64.40;;;;;;5117359;28;20014;-77
2022/08/06 12:34:25;;;;;;;;;;;28.10;64.90;;;;;;5115688;28;19950;-77
2022/08/06 12:36:51;;;;;;;;;;;28.10;64.90;;;;;;5117140;28;19924;-76
2022/08/06 12:39:17;;;;;;;;;;;28.20;65.00;;;;;;5117139;28;19931;-74
2022/08/06 12:41:42;;;;;;;;;;;28.20;64.90;;;;;;5115908;28;20266;-76
2022/08/06 12:44:09;;;;;;;;;;;28.30;64.60;;;;;;5116440;28;19916;-76
2022/08/06 12:46:34;;;;;;;;;;;28.30;64.70;;;;;;5116019;28;19915;-77
2022/08/06 12:49:00;;;;;;;;;;;28.30;64.60;;;;;;5116635;28;20385;-79
2022/08/06 12:51:26;;;;;;;;;;;28.40;64.60;;;;;;5116816;28;19908;-77
2022/08/06 12:53:53;;;;;;;;;;;28.50;64.10;;;;;;5116746;28;19930;-75
2022/08/06 12:56:21;;;;;;;;;;;28.50;64.20;;;;;;5116996;28;20299;-76
2022/08/06 12:58:47;;;;;;;;;;;28.60;64.20;;;;;;5116802;28;19922;-77
2022/08/06 13:01:14;;;;;;;;;;;28.70;64.30;;;;;;5115301;28;19908;-76
2022/08/06 13:03:42;;;;;;;;;;;28.70;64.10;;;;;;5116646;28;19964;-76
2022/08/06 13:06:08;;;;;;;;;;;28.80;64.00;;;;;;5116435;28;19916;-76
2022/08/06 13:08:34;;;;;;;;;;;28.90;64.10;;;;;;5115323;28;19955;-77
2022/08/06 13:11:00;;;;;;;;;;;28.90;63.70;;;;;;5116424;28;19953;-75
2022/08/06 13:13:39;;;;;;;;;;;29.10;63.80;;;;;;5116604;28;19947;-77
2022/08/06 13:16:14;;;;;;;;;;;29.10;63.60;;;;;;5115085;28;19908;-76
2022/08/06 13:18:40;;;;;;;;;;;29.20;63.40;;;;;;5116577;28;19951;-76
2022/08/06 13:21:16;;;;;;;;;;;29.20;63.50;;;;;;5116023;28;19918;-76
2022/08/06 13:23:44;;;;;;;;;;;29.30;63.30;;;;;;5116313;28;19962;-76
2022/08/06 13:26:17;;;;;;;;;;;29.40;63.10;;;;;;5116031;28;20369;-76
2022/08/06 13:29:01;;;;;;;;;;;29.50;63.10;;;;;;5116187;28;19914;-77
2022/08/06 13:31:26;;;;;;;;;;;29.60;63.00;;;;;;5114789;28;19922;-77
2022/08/06 13:34:03;;;;;;;;;;;29.70;62.70;;;;;;5116142;28;19907;-77
2022/08/06 13:36:29;;;;;;;;;;;30.00;62.60;;;;;;5115632;28;20068;-77
2022/08/06 13:38:55;;;;;;;;;;;30.30;62.70;;;;;;5115735;28;19911;-76
2022/08/06 13:41:28;;;;;;;;;;;30.60;62.50;;;;;;5116084;28;19914;-76
2022/08/06 13:43:54;;;;;;;;;;;31.00;62.20;;;;;;5115758;28;20024;-76
2022/08/06 13:46:21;;;;;;;;;;;31.30;61.90;;;;;;5114508;28;19912;-77
2022/08/06 13:48:47;;;;;;;;;;;31.60;61.30;;;;;;5115672;28;19908;-76
2022/08/06 13:51:13;;;;;;;;;;;31.80;61.60;;;;;;5116129;28;19960;-77
2022/08/06 13:53:38;;;;;;;;;;;32.10;60.90;;;;;;5115429;28;19912;-80
2022/08/06 13:56:04;;;;;;;;;;;32.20;61.20;;;;;;5115754;28;20314;-77
2022/08/06 13:58:30;;;;;;;;;;;32.30;61.80;;;;;;5115720;28;19967;-76
2022/08/06 14:00:55;;;;;;;;;;;32.50;60.40;;;;;;5115669;28;20277;-74
2022/08/06 14:03:21;;;;;;;;;;;32.80;60.00;;;;;;5115384;28;19919;-76
2022/08/06 14:05:47;;;;;;;;;;;33.00;60.00;;;;;;5115198;28;19926;-76
2022/08/06 14:08:12;;;;;;;;;;;33.30;58.80;;;;;;5115323;28;19908;-78
2022/08/06 14:10:39;;;;;;;;;;;33.70;58.20;;;;;;5115111;28;19911;-77
2022/08/06 14:13:16;;;;;;;;;;;34.00;58.20;;;;;;5115309;28;20004;-76
2022/08/06 14:15:47;;;;;;;;;;;34.40;57.30;;;;;;5115399;28;19939;-76
2022/08/06 14:18:14;;;;;;;;;;;34.70;57.90;;;;;;5114022;28;19915;-77
2022/08/06 14:20:39;;;;;;;;;;;35.10;57.70;;;;;;5113386;28;19958;-82
2022/08/06 14:23:05;;;;;;;;;;;35.40;57.60;;;;;;5115300;28;19959;-76
2022/08/06 14:25:31;;;;;;;;;;;35.80;55.50;;;;;;5114902;28;19916;-76